sensor_id;sensor_type;location;lat;lon;timestamp;P1;durP1;ratioP1;P2;durP2;ratioP2
42964;SDS011;28604;51.204;22.552;2023-07-20T00:02:14;8.32;;;3.42;;
42964;SDS011;28604;51.204;22.552;2023-07-20T00:04:40;5.13;;;3.67;;
42964;SDS011;28604;51.204;22.552;2023-07-20T00:07:06;5.55;;;3.50;;
42964;SDS011;28604;51.204;22.552;2023-07-20T00:09:32;3.72;;;3.42;;
42964;SDS011;28604;51.204;22.552;2023-07-20T00:11:58;4.22;;;3.72;;
42964;SDS011;28604;51.204;22.552;2023-07-20T00:14:25;7.38;;;3.70;;
42964;SDS011;28604;51.204;22.552;2023-07-20T00:16:51;4.40;;;3.22;;
42964;SDS011;28604;51.204;22.552;2023-07-20T00:19:24;6.53;;;3.90;;
42964;SDS011;28604;51.204;22.552;2023-07-20T00:21:51;4.22;;;3.60;;
42964;SDS011;28604;51.204;22.552;2023-07-20T00:24:18;3.83;;;3.30;;
42964;SDS011;28604;51.204;22.552;2023-07-20T00:26:44;5.15;;;2.58;;
42964;SDS011;28604;51.204;22.552;2023-07-20T00:29:10;3.28;;;2.78;;
42964;SDS011;28604;51.204;22.552;2023-07-20T00:31:36;3.35;;;3.05;;
42964;SDS011;28604;51.204;22.552;2023-07-20T00:34:03;4.70;;;3.08;;
42964;SDS011;28604;51.204;22.552;2023-07-20T00:36:29;7.53;;;3.17;;
42964;SDS011;28604;51.204;22.552;2023-07-20T00:38:55;3.60;;;3.30;;
42964;SDS011;28604;51.204;22.552;2023-07-20T00:41:21;4.47;;;3.53;;
42964;SDS011;28604;51.204;22.552;2023-07-20T00:43:47;5.50;;;3.20;;
42964;SDS011;28604;51.204;22.552;2023-07-20T00:46:13;7.15;;;3.80;;
42964;SDS011;28604;51.204;22.552;2023-07-20T00:48:40;3.75;;;2.92;;
42964;SDS011;28604;51.204;22.552;2023-07-20T00:51:08;4.45;;;3.35;;
42964;SDS011;28604;51.204;22.552;2023-07-20T00:53:36;6.18;;;3.63;;
42964;SDS011;28604;51.204;22.552;2023-07-20T00:56:02;5.90;;;3.30;;
42964;SDS011;28604;51.204;22.552;2023-07-20T00:58:29;7.68;;;3.53;;
42964;SDS011;28604;51.204;22.552;2023-07-20T01:00:54;4.03;;;3.65;;
42964;SDS011;28604;51.204;22.552;2023-07-20T01:03:20;4.60;;;4.07;;
42964;SDS011;28604;51.204;22.552;2023-07-20T01:08:17;8.52;;;3.63;;
42964;SDS011;28604;51.204;22.552;2023-07-20T01:10:57;11.07;;;4.15;;
42964;SDS011;28604;51.204;22.552;2023-07-20T01:13:29;8.77;;;4.22;;
42964;SDS011;28604;51.204;22.552;2023-07-20T01:16:02;7.95;;;3.58;;
42964;SDS011;28604;51.204;22.552;2023-07-20T01:18:28;3.85;;;3.30;;
42964;SDS011;28604;51.204;22.552;2023-07-20T01:20:59;5.32;;;3.65;;
42964;SDS011;28604;51.204;22.552;2023-07-20T01:23:43;7.07;;;3.40;;
42964;SDS011;28604;51.204;22.552;2023-07-20T01:32:07;4.72;;;2.75;;
42964;SDS011;28604;51.204;22.552;2023-07-20T01:34:35;5.57;;;3.38;;
42964;SDS011;28604;51.204;22.552;2023-07-20T01:37:02;2.95;;;2.67;;
42964;SDS011;28604;51.204;22.552;2023-07-20T01:39:30;10.35;;;3.03;;
42964;SDS011;28604;51.204;22.552;2023-07-20T01:41:58;5.90;;;3.25;;
42964;SDS011;28604;51.204;22.552;2023-07-20T01:44:25;3.25;;;2.95;;
42964;SDS011;28604;51.204;22.552;2023-07-20T01:46:52;3.33;;;3.03;;
42964;SDS011;28604;51.204;22.552;2023-07-20T01:49:18;14.23;;;3.40;;
42964;SDS011;28604;51.204;22.552;2023-07-20T01:51:43;5.90;;;3.00;;
42964;SDS011;28604;51.204;22.552;2023-07-20T01:54:09;9.52;;;3.10;;
42964;SDS011;28604;51.204;22.552;2023-07-20T01:56:35;5.05;;;3.00;;
42964;SDS011;28604;51.204;22.552;2023-07-20T01:59:01;4.05;;;3.30;;
42964;SDS011;28604;51.204;22.552;2023-07-20T02:01:27;3.92;;;3.50;;
42964;SDS011;28604;51.204;22.552;2023-07-20T02:03:54;4.10;;;3.65;;
42964;SDS011;28604;51.204;22.552;2023-07-20T02:06:20;4.35;;;3.95;;
42964;SDS011;28604;51.204;22.552;2023-07-20T02:08:48;8.38;;;3.90;;
42964;SDS011;28604;51.204;22.552;2023-07-20T02:11:14;5.25;;;3.72;;
42964;SDS011;28604;51.204;22.552;2023-07-20T02:13:40;5.93;;;3.75;;
42964;SDS011;28604;51.204;22.552;2023-07-20T02:16:06;4.40;;;4.10;;
42964;SDS011;28604;51.204;22.552;2023-07-20T02:18:32;7.03;;;3.90;;
42964;SDS011;28604;51.204;22.552;2023-07-20T02:20:58;3.95;;;3.28;;
42964;SDS011;28604;51.204;22.552;2023-07-20T02:23:24;4.25;;;3.88;;
42964;SDS011;28604;51.204;22.552;2023-07-20T02:25:50;3.83;;;3.42;;
42964;SDS011;28604;51.204;22.552;2023-07-20T02:28:16;3.83;;;3.50;;
42964;SDS011;28604;51.204;22.552;2023-07-20T02:30:42;6.90;;;3.63;;
42964;SDS011;28604;51.204;22.552;2023-07-20T02:33:08;4.15;;;3.40;;
42964;SDS011;28604;51.204;22.552;2023-07-20T02:35:34;7.93;;;3.25;;
42964;SDS011;28604;51.204;22.552;2023-07-20T02:38:00;7.18;;;3.55;;
42964;SDS011;28604;51.204;22.552;2023-07-20T02:40:26;4.10;;;3.67;;
42964;SDS011;28604;51.204;22.552;2023-07-20T02:42:53;5.25;;;3.28;;
42964;SDS011;28604;51.204;22.552;2023-07-20T02:45:18;6.05;;;3.30;;
42964;SDS011;28604;51.204;22.552;2023-07-20T02:47:44;3.58;;;3.30;;
42964;SDS011;28604;51.204;22.552;2023-07-20T02:50:10;5.35;;;3.50;;
42964;SDS011;28604;51.204;22.552;2023-07-20T02:52:39;3.95;;;3.65;;
42964;SDS011;28604;51.204;22.552;2023-07-20T02:55:05;7.70;;;4.32;;
42964;SDS011;28604;51.204;22.552;2023-07-20T02:57:31;7.50;;;3.70;;
42964;SDS011;28604;51.204;22.552;2023-07-20T02:59:57;4.43;;;3.67;;
42964;SDS011;28604;51.204;22.552;2023-07-20T03:02:23;5.95;;;3.20;;
42964;SDS011;28604;51.204;22.552;2023-07-20T03:04:49;6.50;;;3.25;;
42964;SDS011;28604;51.204;22.552;2023-07-20T03:07:15;8.40;;;3.83;;
42964;SDS011;28604;51.204;22.552;2023-07-20T03:09:40;6.55;;;3.08;;
42964;SDS011;28604;51.204;22.552;2023-07-20T03:12:07;4.57;;;3.00;;
42964;SDS011;28604;51.204;22.552;2023-07-20T03:14:33;6.70;;;3.53;;
42964;SDS011;28604;51.204;22.552;2023-07-20T03:16:59;3.38;;;3.15;;
42964;SDS011;28604;51.204;22.552;2023-07-20T03:19:25;6.95;;;4.13;;
42964;SDS011;28604;51.204;22.552;2023-07-20T03:21:51;3.55;;;3.25;;
42964;SDS011;28604;51.204;22.552;2023-07-20T03:24:18;7.95;;;3.85;;
42964;SDS011;28604;51.204;22.552;2023-07-20T03:26:49;4.70;;;3.72;;
42964;SDS011;28604;51.204;22.552;2023-07-20T03:29:27;5.35;;;4.05;;
42964;SDS011;28604;51.204;22.552;2023-07-20T03:31:53;6.38;;;3.72;;
42964;SDS011;28604;51.204;22.552;2023-07-20T03:34:19;4.28;;;3.85;;
42964;SDS011;28604;51.204;22.552;2023-07-20T03:36:45;9.88;;;4.90;;
42964;SDS011;28604;51.204;22.552;2023-07-20T03:39:12;7.32;;;4.60;;
42964;SDS011;28604;51.204;22.552;2023-07-20T03:41:38;9.52;;;5.25;;
42964;SDS011;28604;51.204;22.552;2023-07-20T03:44:04;6.57;;;4.68;;
42964;SDS011;28604;51.204;22.552;2023-07-20T03:46:30;5.57;;;3.80;;
42964;SDS011;28604;51.204;22.552;2023-07-20T03:48:56;8.35;;;4.30;;
42964;SDS011;28604;51.204;22.552;2023-07-20T03:51:22;4.30;;;3.90;;
42964;SDS011;28604;51.204;22.552;2023-07-20T03:53:48;12.73;;;4.32;;
42964;SDS011;28604;51.204;22.552;2023-07-20T03:56:14;9.52;;;4.10;;
42964;SDS011;28604;51.204;22.552;2023-07-20T03:58:40;5.20;;;4.50;;
42964;SDS011;28604;51.204;22.552;2023-07-20T04:01:06;7.15;;;4.45;;
42964;SDS011;28604;51.204;22.552;2023-07-20T04:03:32;10.52;;;4.10;;
42964;SDS011;28604;51.204;22.552;2023-07-20T04:05:59;4.40;;;4.00;;
42964;SDS011;28604;51.204;22.552;2023-07-20T04:08:25;7.85;;;4.15;;
42964;SDS011;28604;51.204;22.552;2023-07-20T04:10:51;9.68;;;4.20;;
42964;SDS011;28604;51.204;22.552;2023-07-20T04:13:17;10.13;;;4.18;;
42964;SDS011;28604;51.204;22.552;2023-07-20T04:15:43;5.25;;;4.63;;
42964;SDS011;28604;51.204;22.552;2023-07-20T04:18:09;7.75;;;4.63;;
42964;SDS011;28604;51.204;22.552;2023-07-20T04:20:36;9.40;;;5.03;;
42964;SDS011;28604;51.204;22.552;2023-07-20T04:23:02;5.82;;;4.60;;
42964;SDS011;28604;51.204;22.552;2023-07-20T04:25:29;12.35;;;4.40;;
42964;SDS011;28604;51.204;22.552;2023-07-20T04:28:05;17.80;;;4.55;;
42964;SDS011;28604;51.204;22.552;2023-07-20T04:30:36;9.33;;;4.67;;
42964;SDS011;28604;51.204;22.552;2023-07-20T04:33:03;12.13;;;4.45;;
42964;SDS011;28604;51.204;22.552;2023-07-20T04:38:19;13.00;;;5.43;;
42964;SDS011;28604;51.204;22.552;2023-07-20T04:40:55;4.97;;;4.30;;
42964;SDS011;28604;51.204;22.552;2023-07-20T04:43:21;8.02;;;4.70;;
42964;SDS011;28604;51.204;22.552;2023-07-20T04:45:49;7.10;;;4.65;;
42964;SDS011;28604;51.204;22.552;2023-07-20T04:48:16;9.85;;;4.50;;
42964;SDS011;28604;51.204;22.552;2023-07-20T04:50:50;10.05;;;4.65;;
42964;SDS011;28604;51.204;22.552;2023-07-20T04:53:17;6.32;;;4.28;;
42964;SDS011;28604;51.204;22.552;2023-07-20T04:55:47;7.88;;;4.53;;
42964;SDS011;28604;51.204;22.552;2023-07-20T04:58:18;15.18;;;5.72;;
42964;SDS011;28604;51.204;22.552;2023-07-20T05:00:49;10.80;;;4.90;;
42964;SDS011;28604;51.204;22.552;2023-07-20T05:03:15;10.10;;;4.88;;
42964;SDS011;28604;51.204;22.552;2023-07-20T05:05:41;8.38;;;5.10;;
42964;SDS011;28604;51.204;22.552;2023-07-20T05:08:07;10.27;;;5.80;;
42964;SDS011;28604;51.204;22.552;2023-07-20T05:10:34;11.05;;;6.57;;
42964;SDS011;28604;51.204;22.552;2023-07-20T05:13:00;11.80;;;6.65;;
42964;SDS011;28604;51.204;22.552;2023-07-20T05:15:26;9.43;;;7.00;;
42964;SDS011;28604;51.204;22.552;2023-07-20T05:17:53;9.68;;;7.55;;
42964;SDS011;28604;51.204;22.552;2023-07-20T05:20:19;10.05;;;6.55;;
42964;SDS011;28604;51.204;22.552;2023-07-20T05:22:45;10.90;;;8.02;;
42964;SDS011;28604;51.204;22.552;2023-07-20T05:25:11;10.82;;;6.53;;
42964;SDS011;28604;51.204;22.552;2023-07-20T05:27:37;14.88;;;7.82;;
42964;SDS011;28604;51.204;22.552;2023-07-20T05:30:05;12.10;;;7.18;;
42964;SDS011;28604;51.204;22.552;2023-07-20T05:32:32;10.30;;;7.45;;
42964;SDS011;28604;51.204;22.552;2023-07-20T05:34:58;11.90;;;7.10;;
42964;SDS011;28604;51.204;22.552;2023-07-20T05:37:24;10.45;;;6.28;;
42964;SDS011;28604;51.204;22.552;2023-07-20T05:39:50;10.40;;;6.93;;
42964;SDS011;28604;51.204;22.552;2023-07-20T05:42:16;11.40;;;6.80;;
42964;SDS011;28604;51.204;22.552;2023-07-20T05:44:42;12.02;;;7.30;;
42964;SDS011;28604;51.204;22.552;2023-07-20T05:47:08;10.75;;;7.22;;
42964;SDS011;28604;51.204;22.552;2023-07-20T05:49:34;9.10;;;6.80;;
42964;SDS011;28604;51.204;22.552;2023-07-20T05:52:01;10.20;;;7.30;;
42964;SDS011;28604;51.204;22.552;2023-07-20T05:54:27;13.65;;;7.38;;
42964;SDS011;28604;51.204;22.552;2023-07-20T05:56:53;12.35;;;7.10;;
42964;SDS011;28604;51.204;22.552;2023-07-20T05:59:19;10.25;;;7.18;;
42964;SDS011;28604;51.204;22.552;2023-07-20T06:01:45;16.15;;;8.02;;
42964;SDS011;28604;51.204;22.552;2023-07-20T06:04:15;14.00;;;7.85;;
42964;SDS011;28604;51.204;22.552;2023-07-20T06:06:41;13.00;;;7.57;;
42964;SDS011;28604;51.204;22.552;2023-07-20T06:09:07;10.73;;;7.15;;
42964;SDS011;28604;51.204;22.552;2023-07-20T06:11:37;10.77;;;7.20;;
42964;SDS011;28604;51.204;22.552;2023-07-20T06:14:04;10.25;;;7.30;;
42964;SDS011;28604;51.204;22.552;2023-07-20T06:16:30;11.52;;;8.63;;
42964;SDS011;28604;51.204;22.552;2023-07-20T06:18:56;19.10;;;9.35;;
42964;SDS011;28604;51.204;22.552;2023-07-20T06:21:22;11.00;;;7.97;;
42964;SDS011;28604;51.204;22.552;2023-07-20T06:23:48;11.48;;;8.05;;
42964;SDS011;28604;51.204;22.552;2023-07-20T06:26:14;17.17;;;9.20;;
42964;SDS011;28604;51.204;22.552;2023-07-20T06:28:41;11.50;;;9.65;;
42964;SDS011;28604;51.204;22.552;2023-07-20T06:31:07;16.83;;;9.52;;
42964;SDS011;28604;51.204;22.552;2023-07-20T06:33:33;16.65;;;8.82;;
42964;SDS011;28604;51.204;22.552;2023-07-20T06:35:59;13.63;;;9.23;;
42964;SDS011;28604;51.204;22.552;2023-07-20T06:38:26;17.80;;;9.80;;
42964;SDS011;28604;51.204;22.552;2023-07-20T06:40:52;16.90;;;9.15;;
42964;SDS011;28604;51.204;22.552;2023-07-20T06:43:18;17.92;;;9.60;;
42964;SDS011;28604;51.204;22.552;2023-07-20T06:45:43;15.60;;;9.10;;
42964;SDS011;28604;51.204;22.552;2023-07-20T06:48:10;12.50;;;8.73;;
42964;SDS011;28604;51.204;22.552;2023-07-20T06:50:35;12.18;;;8.95;;
42964;SDS011;28604;51.204;22.552;2023-07-20T06:53:01;9.60;;;7.00;;
42964;SDS011;28604;51.204;22.552;2023-07-20T06:55:29;9.90;;;6.75;;
42964;SDS011;28604;51.204;22.552;2023-07-20T06:57:55;7.88;;;6.10;;
42964;SDS011;28604;51.204;22.552;2023-07-20T07:00:21;7.55;;;5.45;;
42964;SDS011;28604;51.204;22.552;2023-07-20T07:02:47;8.73;;;5.70;;
42964;SDS011;28604;51.204;22.552;2023-07-20T07:05:13;8.63;;;4.75;;
42964;SDS011;28604;51.204;22.552;2023-07-20T07:07:41;6.95;;;4.00;;
42964;SDS011;28604;51.204;22.552;2023-07-20T07:10:07;3.90;;;3.60;;
42964;SDS011;28604;51.204;22.552;2023-07-20T07:12:34;4.60;;;3.33;;
42964;SDS011;28604;51.204;22.552;2023-07-20T07:15:01;5.93;;;3.85;;
42964;SDS011;28604;51.204;22.552;2023-07-20T07:17:31;6.18;;;3.65;;
42964;SDS011;28604;51.204;22.552;2023-07-20T07:19:58;4.45;;;4.05;;
42964;SDS011;28604;51.204;22.552;2023-07-20T07:22:24;3.83;;;3.42;;
42964;SDS011;28604;51.204;22.552;2023-07-20T07:24:50;18.25;;;4.03;;
42964;SDS011;28604;51.204;22.552;2023-07-20T07:27:16;7.82;;;3.63;;
42964;SDS011;28604;51.204;22.552;2023-07-20T07:29:42;6.18;;;3.65;;
42964;SDS011;28604;51.204;22.552;2023-07-20T07:32:12;5.68;;;4.55;;
42964;SDS011;28604;51.204;22.552;2023-07-20T07:34:38;9.60;;;4.43;;
42964;SDS011;28604;51.204;22.552;2023-07-20T07:37:04;6.13;;;4.53;;
42964;SDS011;28604;51.204;22.552;2023-07-20T07:39:30;6.38;;;3.75;;
42964;SDS011;28604;51.204;22.552;2023-07-20T07:41:57;7.03;;;3.75;;
42964;SDS011;28604;51.204;22.552;2023-07-20T07:44:23;7.95;;;3.90;;
42964;SDS011;28604;51.204;22.552;2023-07-20T07:46:49;9.73;;;4.90;;
42964;SDS011;28604;51.204;22.552;2023-07-20T07:52:06;3.22;;;2.97;;
42964;SDS011;28604;51.204;22.552;2023-07-20T07:54:32;4.72;;;3.10;;
42964;SDS011;28604;51.204;22.552;2023-07-20T07:56:58;13.63;;;4.15;;
42964;SDS011;28604;51.204;22.552;2023-07-20T07:59:24;4.32;;;2.90;;
42964;SDS011;28604;51.204;22.552;2023-07-20T08:01:50;9.05;;;4.20;;
42964;SDS011;28604;51.204;22.552;2023-07-20T08:04:15;4.05;;;2.83;;
42964;SDS011;28604;51.204;22.552;2023-07-20T08:06:42;6.75;;;3.47;;
42964;SDS011;28604;51.204;22.552;2023-07-20T08:09:08;5.32;;;3.00;;
42964;SDS011;28604;51.204;22.552;2023-07-20T08:11:34;5.15;;;3.08;;
42964;SDS011;28604;51.204;22.552;2023-07-20T08:14:00;3.83;;;2.70;;
42964;SDS011;28604;51.204;22.552;2023-07-20T08:16:26;3.10;;;2.83;;
42964;SDS011;28604;51.204;22.552;2023-07-20T08:18:53;5.47;;;2.70;;
42964;SDS011;28604;51.204;22.552;2023-07-20T08:21:19;4.20;;;3.00;;
42964;SDS011;28604;51.204;22.552;2023-07-20T08:23:44;4.72;;;2.90;;
42964;SDS011;28604;51.204;22.552;2023-07-20T08:26:11;4.63;;;2.75;;
42964;SDS011;28604;51.204;22.552;2023-07-20T08:28:36;6.35;;;2.92;;
42964;SDS011;28604;51.204;22.552;2023-07-20T08:31:05;4.53;;;2.80;;
42964;SDS011;28604;51.204;22.552;2023-07-20T08:33:32;3.60;;;3.13;;
42964;SDS011;28604;51.204;22.552;2023-07-20T08:36:00;4.55;;;2.95;;
42964;SDS011;28604;51.204;22.552;2023-07-20T08:38:27;8.13;;;2.20;;
42964;SDS011;28604;51.204;22.552;2023-07-20T08:40:54;6.93;;;2.88;;
42964;SDS011;28604;51.204;22.552;2023-07-20T08:43:21;4.45;;;2.65;;
42964;SDS011;28604;51.204;22.552;2023-07-20T08:45:49;2.85;;;2.75;;
42964;SDS011;28604;51.204;22.552;2023-07-20T08:48:16;4.07;;;2.70;;
42964;SDS011;28604;51.204;22.552;2023-07-20T08:50:44;6.70;;;2.05;;
42964;SDS011;28604;51.204;22.552;2023-07-20T08:53:11;3.13;;;2.20;;
42964;SDS011;28604;51.204;22.552;2023-07-20T08:55:42;3.08;;;1.90;;
42964;SDS011;28604;51.204;22.552;2023-07-20T08:58:11;6.13;;;2.13;;
42964;SDS011;28604;51.204;22.552;2023-07-20T09:00:38;5.57;;;2.30;;
42964;SDS011;28604;51.204;22.552;2023-07-20T09:03:04;3.60;;;2.45;;
42964;SDS011;28604;51.204;22.552;2023-07-20T09:05:31;3.03;;;2.33;;
42964;SDS011;28604;51.204;22.552;2023-07-20T09:07:56;5.75;;;2.13;;
42964;SDS011;28604;51.204;22.552;2023-07-20T09:10:23;2.35;;;1.85;;
42964;SDS011;28604;51.204;22.552;2023-07-20T09:12:49;3.22;;;2.15;;
42964;SDS011;28604;51.204;22.552;2023-07-20T09:15:15;5.10;;;2.80;;
42964;SDS011;28604;51.204;22.552;2023-07-20T09:17:46;10.40;;;3.00;;
42964;SDS011;28604;51.204;22.552;2023-07-20T09:20:14;5.30;;;2.30;;
42964;SDS011;28604;51.204;22.552;2023-07-20T09:22:41;2.85;;;2.13;;
42964;SDS011;28604;51.204;22.552;2023-07-20T09:25:15;5.60;;;2.58;;
42964;SDS011;28604;51.204;22.552;2023-07-20T09:27:42;3.05;;;1.80;;
42964;SDS011;28604;51.204;22.552;2023-07-20T09:30:11;8.45;;;2.45;;
42964;SDS011;28604;51.204;22.552;2023-07-20T09:32:41;3.60;;;1.58;;
42964;SDS011;28604;51.204;22.552;2023-07-20T09:35:18;5.00;;;1.77;;
42964;SDS011;28604;51.204;22.552;2023-07-20T09:37:53;5.78;;;2.00;;
42964;SDS011;28604;51.204;22.552;2023-07-20T09:40:23;4.65;;;1.73;;
42964;SDS011;28604;51.204;22.552;2023-07-20T09:42:51;5.30;;;1.83;;
42964;SDS011;28604;51.204;22.552;2023-07-20T09:45:29;7.40;;;2.75;;
42964;SDS011;28604;51.204;22.552;2023-07-20T09:48:15;6.97;;;2.35;;
42964;SDS011;28604;51.204;22.552;2023-07-20T09:50:51;1.92;;;1.20;;
42964;SDS011;28604;51.204;22.552;2023-07-20T09:53:18;2.55;;;1.90;;
42964;SDS011;28604;51.204;22.552;2023-07-20T09:55:45;2.40;;;1.83;;
42964;SDS011;28604;51.204;22.552;2023-07-20T09:58:13;2.13;;;1.40;;
42964;SDS011;28604;51.204;22.552;2023-07-20T10:00:39;2.05;;;1.20;;
42964;SDS011;28604;51.204;22.552;2023-07-20T10:03:08;1.60;;;1.40;;
42964;SDS011;28604;51.204;22.552;2023-07-20T10:05:39;3.30;;;1.45;;
42964;SDS011;28604;51.204;22.552;2023-07-20T10:08:10;2.85;;;1.20;;
42964;SDS011;28604;51.204;22.552;2023-07-20T10:10:38;5.20;;;1.40;;
42964;SDS011;28604;51.204;22.552;2023-07-20T10:13:09;3.28;;;1.17;;
42964;SDS011;28604;51.204;22.552;2023-07-20T10:15:46;2.40;;;1.15;;
42964;SDS011;28604;51.204;22.552;2023-07-20T10:21:16;2.72;;;0.90;;
42964;SDS011;28604;51.204;22.552;2023-07-20T10:23:44;3.40;;;1.08;;
42964;SDS011;28604;51.204;22.552;2023-07-20T10:26:11;1.45;;;1.30;;
42964;SDS011;28604;51.204;22.552;2023-07-20T10:28:38;1.55;;;1.00;;
42964;SDS011;28604;51.204;22.552;2023-07-20T10:31:07;4.75;;;0.60;;
42964;SDS011;28604;51.204;22.552;2023-07-20T10:33:34;3.30;;;0.57;;
42964;SDS011;28604;51.204;22.552;2023-07-20T10:36:02;3.08;;;0.52;;
42964;SDS011;28604;51.204;22.552;2023-07-20T10:38:40;4.53;;;1.00;;
42964;SDS011;28604;51.204;22.552;2023-07-20T10:41:18;1.37;;;1.00;;
42964;SDS011;28604;51.204;22.552;2023-07-20T10:44:04;2.58;;;0.75;;
42964;SDS011;28604;51.204;22.552;2023-07-20T10:49:05;1.48;;;1.17;;
42964;SDS011;28604;51.204;22.552;2023-07-20T10:51:39;1.65;;;0.77;;
42964;SDS011;28604;51.204;22.552;2023-07-20T10:54:33;6.72;;;1.45;;
42964;SDS011;28604;51.204;22.552;2023-07-20T10:56:57;2.25;;;0.85;;
42964;SDS011;28604;51.204;22.552;2023-07-20T10:59:43;2.15;;;0.60;;
42964;SDS011;28604;51.204;22.552;2023-07-20T11:02:12;2.67;;;1.63;;
42964;SDS011;28604;51.204;22.552;2023-07-20T11:04:38;7.10;;;2.20;;
42964;SDS011;28604;51.204;22.552;2023-07-20T11:07:08;3.63;;;2.60;;
42964;SDS011;28604;51.204;22.552;2023-07-20T11:09:38;3.88;;;1.85;;
42964;SDS011;28604;51.204;22.552;2023-07-20T11:12:11;2.10;;;1.52;;
42964;SDS011;28604;51.204;22.552;2023-07-20T11:14:53;4.88;;;1.35;;
42964;SDS011;28604;51.204;22.552;2023-07-20T11:17:22;1.65;;;1.00;;
42964;SDS011;28604;51.204;22.552;2023-07-20T11:19:57;0.60;;;0.60;;
42964;SDS011;28604;51.204;22.552;2023-07-20T11:22:26;1.95;;;0.55;;
42964;SDS011;28604;51.204;22.552;2023-07-20T11:24:56;1.15;;;0.65;;
42964;SDS011;28604;51.204;22.552;2023-07-20T11:27:23;1.67;;;0.88;;
42964;SDS011;28604;51.204;22.552;2023-07-20T11:29:49;1.60;;;1.00;;
42964;SDS011;28604;51.204;22.552;2023-07-20T11:32:21;3.05;;;1.33;;
42964;SDS011;28604;51.204;22.552;2023-07-20T11:34:48;2.15;;;1.23;;
42964;SDS011;28604;51.204;22.552;2023-07-20T11:37:15;0.80;;;0.80;;
42964;SDS011;28604;51.204;22.552;2023-07-20T11:39:42;1.42;;;0.90;;
42964;SDS011;28604;51.204;22.552;2023-07-20T11:42:08;3.20;;;1.13;;
42964;SDS011;28604;51.204;22.552;2023-07-20T11:44:34;4.40;;;1.35;;
42964;SDS011;28604;51.204;22.552;2023-07-20T11:47:01;1.13;;;1.10;;
42964;SDS011;28604;51.204;22.552;2023-07-20T11:49:30;1.30;;;1.20;;
42964;SDS011;28604;51.204;22.552;2023-07-20T11:52:00;1.38;;;0.50;;
42964;SDS011;28604;51.204;22.552;2023-07-20T11:54:26;1.30;;;0.70;;
42964;SDS011;28604;51.204;22.552;2023-07-20T11:56:53;0.73;;;0.60;;
42964;SDS011;28604;51.204;22.552;2023-07-20T11:59:20;1.25;;;0.55;;
42964;SDS011;28604;51.204;22.552;2023-07-20T12:01:47;0.52;;;0.30;;
42964;SDS011;28604;51.204;22.552;2023-07-20T12:04:13;1.27;;;0.63;;
42964;SDS011;28604;51.204;22.552;2023-07-20T12:06:39;3.03;;;0.60;;
42964;SDS011;28604;51.204;22.552;2023-07-20T12:09:05;2.22;;;0.52;;
42964;SDS011;28604;51.204;22.552;2023-07-20T12:11:35;0.50;;;0.30;;
42964;SDS011;28604;51.204;22.552;2023-07-20T12:14:03;1.48;;;0.55;;
42964;SDS011;28604;51.204;22.552;2023-07-20T12:16:32;0.40;;;0.40;;
42964;SDS011;28604;51.204;22.552;2023-07-20T12:18:59;1.85;;;0.60;;
42964;SDS011;28604;51.204;22.552;2023-07-20T12:21:35;1.27;;;0.80;;
42964;SDS011;28604;51.204;22.552;2023-07-20T12:24:02;1.90;;;0.80;;
42964;SDS011;28604;51.204;22.552;2023-07-20T12:26:29;1.33;;;0.77;;
42964;SDS011;28604;51.204;22.552;2023-07-20T12:28:56;0.80;;;0.80;;
42964;SDS011;28604;51.204;22.552;2023-07-20T12:31:22;2.03;;;1.50;;
42964;SDS011;28604;51.204;22.552;2023-07-20T12:33:50;1.90;;;1.70;;
42964;SDS011;28604;51.204;22.552;2023-07-20T12:36:17;2.78;;;1.98;;
42964;SDS011;28604;51.204;22.552;2023-07-20T12:38:43;3.92;;;2.55;;
42964;SDS011;28604;51.204;22.552;2023-07-20T12:41:10;2.55;;;2.40;;
42964;SDS011;28604;51.204;22.552;2023-07-20T12:43:46;3.42;;;3.22;;
42964;SDS011;28604;51.204;22.552;2023-07-20T12:48:39;4.45;;;2.38;;
42964;SDS011;28604;51.204;22.552;2023-07-20T12:51:07;4.07;;;2.58;;
42964;SDS011;28604;51.204;22.552;2023-07-20T12:53:34;2.88;;;2.08;;
42964;SDS011;28604;51.204;22.552;2023-07-20T12:56:01;5.53;;;1.98;;
42964;SDS011;28604;51.204;22.552;2023-07-20T12:58:27;2.90;;;2.10;;
42964;SDS011;28604;51.204;22.552;2023-07-20T13:00:53;3.60;;;1.85;;
42964;SDS011;28604;51.204;22.552;2023-07-20T13:03:19;1.77;;;1.67;;
42964;SDS011;28604;51.204;22.552;2023-07-20T13:05:46;2.10;;;1.60;;
42964;SDS011;28604;51.204;22.552;2023-07-20T13:08:12;3.97;;;1.70;;
42964;SDS011;28604;51.204;22.552;2023-07-20T13:10:39;1.52;;;1.40;;
42964;SDS011;28604;51.204;22.552;2023-07-20T13:13:05;0.98;;;0.98;;
42964;SDS011;28604;51.204;22.552;2023-07-20T13:15:32;0.90;;;0.90;;
42964;SDS011;28604;51.204;22.552;2023-07-20T13:18:05;1.55;;;1.38;;
42964;SDS011;28604;51.204;22.552;2023-07-20T13:20:31;1.08;;;1.08;;
42964;SDS011;28604;51.204;22.552;2023-07-20T13:22:57;1.88;;;1.00;;
42964;SDS011;28604;51.204;22.552;2023-07-20T13:25:24;1.83;;;0.88;;
42964;SDS011;28604;51.204;22.552;2023-07-20T13:27:50;2.92;;;0.80;;
42964;SDS011;28604;51.204;22.552;2023-07-20T13:30:16;1.80;;;0.98;;
42964;SDS011;28604;51.204;22.552;2023-07-20T13:32:43;1.10;;;1.10;;
42964;SDS011;28604;51.204;22.552;2023-07-20T13:35:10;2.25;;;1.30;;
42964;SDS011;28604;51.204;22.552;2023-07-20T13:37:36;3.10;;;1.65;;
42964;SDS011;28604;51.204;22.552;2023-07-20T13:40:03;2.15;;;1.55;;
42964;SDS011;28604;51.204;22.552;2023-07-20T13:42:33;2.38;;;1.75;;
42964;SDS011;28604;51.204;22.552;2023-07-20T13:45:00;0.98;;;0.93;;
42964;SDS011;28604;51.204;22.552;2023-07-20T13:47:26;1.10;;;1.00;;
42964;SDS011;28604;51.204;22.552;2023-07-20T13:49:52;1.00;;;1.00;;
42964;SDS011;28604;51.204;22.552;2023-07-20T13:52:18;1.95;;;0.80;;
42964;SDS011;28604;51.204;22.552;2023-07-20T13:54:44;1.48;;;1.05;;
42964;SDS011;28604;51.204;22.552;2023-07-20T13:57:10;1.45;;;1.00;;
42964;SDS011;28604;51.204;22.552;2023-07-20T13:59:36;1.50;;;1.50;;
42964;SDS011;28604;51.204;22.552;2023-07-20T14:02:02;1.67;;;1.17;;
42964;SDS011;28604;51.204;22.552;2023-07-20T14:04:29;1.63;;;1.52;;
42964;SDS011;28604;51.204;22.552;2023-07-20T14:06:54;1.27;;;1.17;;
42964;SDS011;28604;51.204;22.552;2023-07-20T14:09:21;3.80;;;0.93;;
42964;SDS011;28604;51.204;22.552;2023-07-20T14:11:46;1.58;;;1.00;;
42964;SDS011;28604;51.204;22.552;2023-07-20T14:14:13;3.15;;;0.90;;
42964;SDS011;28604;51.204;22.552;2023-07-20T14:16:38;3.67;;;1.23;;
42964;SDS011;28604;51.204;22.552;2023-07-20T14:19:04;4.15;;;1.05;;
42964;SDS011;28604;51.204;22.552;2023-07-20T14:21:30;3.97;;;1.20;;
42964;SDS011;28604;51.204;22.552;2023-07-20T14:23:57;1.25;;;1.10;;
42964;SDS011;28604;51.204;22.552;2023-07-20T14:26:23;2.00;;;1.13;;
42964;SDS011;28604;51.204;22.552;2023-07-20T14:28:49;2.00;;;1.25;;
42964;SDS011;28604;51.204;22.552;2023-07-20T14:31:15;1.08;;;1.08;;
42964;SDS011;28604;51.204;22.552;2023-07-20T14:36:13;6.10;;;1.50;;
42964;SDS011;28604;51.204;22.552;2023-07-20T14:38:39;1.48;;;1.08;;
42964;SDS011;28604;51.204;22.552;2023-07-20T14:41:06;1.10;;;1.10;;
42964;SDS011;28604;51.204;22.552;2023-07-20T14:43:32;4.55;;;1.15;;
42964;SDS011;28604;51.204;22.552;2023-07-20T14:45:58;0.85;;;0.85;;
42964;SDS011;28604;51.204;22.552;2023-07-20T14:48:24;1.95;;;1.30;;
42964;SDS011;28604;51.204;22.552;2023-07-20T14:50:50;2.70;;;1.42;;
42964;SDS011;28604;51.204;22.552;2023-07-20T14:53:16;3.13;;;1.17;;
42964;SDS011;28604;51.204;22.552;2023-07-20T14:55:42;1.00;;;1.00;;
42964;SDS011;28604;51.204;22.552;2023-07-20T14:58:09;1.23;;;1.13;;
42964;SDS011;28604;51.204;22.552;2023-07-20T15:00:36;2.35;;;1.10;;